EPWR/WRO METAR and TAF weather

Enter ICAO airport designator
Station Type Date Time Source
EPWR METAR 2024/06/14 23:00 UTC NOAA

EPWR 142300Z 15005KT 130V190 CAVOK 16/11 Q1012


Station Type Date Time Source
EPWR Decoded METAR 2024/06/14 23:00 UTC NOAA

Wroclaw Ii, Poland (EPWR) 51-06N 016-53E 121M
Jun 14, 2024 - 07:00 PM EDT / 2024.06.14 2300 UTC
Wind: from the SSE (150 degrees) at 6 MPH (5 KT) (direction variable):0
Visibility: greater than 7 mile(s):0
Temperature: 60 F (16 C)
Dew Point: 51 F (11 C)
Relative Humidity: 72%
Pressure (altimeter): 29.88 in. Hg (1012 hPa)
ob: EPWR 142300Z 15005KT 130V190 CAVOK 16/11 Q1012
cycle: 23

Station Type Date Time Source
EPWR TAF 2024/06/14 21:37 UTC NOAA